sensor_id;sensor_type;location;lat;lon;timestamp;pressure;altitude;pressure_sealevel;temperature;humidity
63343;BME280;49465;57.664;39.686;2022-10-16T00:00:19;101509.44;;;7.11;64.72
63343;BME280;49465;57.664;39.686;2022-10-16T00:02:48;101500.13;;;7.03;64.56
63343;BME280;49465;57.664;39.686;2022-10-16T00:05:17;101496.91;;;6.95;64.32
63343;BME280;49465;57.664;39.686;2022-10-16T00:07:58;101508.38;;;7.17;64.75
63343;BME280;49465;57.664;39.686;2022-10-16T00:10:30;101500.94;;;7.05;64.46
63343;BME280;49465;57.664;39.686;2022-10-16T00:12:59;101502.06;;;6.96;64.74
63343;BME280;49465;57.664;39.686;2022-10-16T00:15:26;101501.28;;;6.94;64.27
63343;BME280;49465;57.664;39.686;2022-10-16T00:18:05;101513.97;;;7.05;64.45
63343;BME280;49465;57.664;39.686;2022-10-16T00:20:34;101507.94;;;7.03;64.31
63343;BME280;49465;57.664;39.686;2022-10-16T00:23:07;101514.81;;;7.05;64.57
63343;BME280;49465;57.664;39.686;2022-10-16T00:25:37;101519.22;;;7.03;64.09
63343;BME280;49465;57.664;39.686;2022-10-16T00:28:09;101509.97;;;6.93;64.04
63343;BME280;49465;57.664;39.686;2022-10-16T00:30:41;101508.28;;;6.92;64.08
63343;BME280;49465;57.664;39.686;2022-10-16T00:33:08;101511.78;;;6.91;63.82
63343;BME280;49465;57.664;39.686;2022-10-16T00:35:34;101504.94;;;6.87;64.00
63343;BME280;49465;57.664;39.686;2022-10-16T00:38:05;101511.94;;;6.86;64.02
63343;BME280;49465;57.664;39.686;2022-10-16T00:40:44;101509.53;;;7.08;63.85
63343;BME280;49465;57.664;39.686;2022-10-16T00:43:32;101514.16;;;6.99;64.18
63343;BME280;49465;57.664;39.686;2022-10-16T00:46:13;101515.16;;;6.95;63.96
63343;BME280;49465;57.664;39.686;2022-10-16T00:49:00;101521.66;;;7.09;63.58
63343;BME280;49465;57.664;39.686;2022-10-16T00:51:38;101516.84;;;6.96;63.63
63343;BME280;49465;57.664;39.686;2022-10-16T00:54:23;101518.34;;;7.04;63.40
63343;BME280;49465;57.664;39.686;2022-10-16T00:56:56;101527.66;;;6.83;63.64
63343;BME280;49465;57.664;39.686;2022-10-16T01:01:55;101528.09;;;6.68;63.52
63343;BME280;49465;57.664;39.686;2022-10-16T01:04:25;101529.63;;;6.75;63.83
63343;BME280;49465;57.664;39.686;2022-10-16T01:18:14;101531.25;;;6.79;63.31
63343;BME280;49465;57.664;39.686;2022-10-16T01:23:34;101533.72;;;6.84;63.72
63343;BME280;49465;57.664;39.686;2022-10-16T01:32:01;101529.03;;;6.65;64.67
63343;BME280;49465;57.664;39.686;2022-10-16T01:34:45;101535.47;;;6.52;65.37
63343;BME280;49465;57.664;39.686;2022-10-16T01:37:36;101529.69;;;6.72;65.38
63343;BME280;49465;57.664;39.686;2022-10-16T01:40:08;101525.88;;;6.54;65.36
63343;BME280;49465;57.664;39.686;2022-10-16T01:42:49;101536.66;;;6.71;65.95
63343;BME280;49465;57.664;39.686;2022-10-16T01:45:21;101526.69;;;6.56;65.79
63343;BME280;49465;57.664;39.686;2022-10-16T01:47:51;101537.38;;;6.47;65.55
63343;BME280;49465;57.664;39.686;2022-10-16T01:50:21;101527.88;;;6.44;66.02
63343;BME280;49465;57.664;39.686;2022-10-16T01:52:53;101536.91;;;6.62;65.99
63343;BME280;49465;57.664;39.686;2022-10-16T01:55:25;101537.91;;;6.58;65.98
63343;BME280;49465;57.664;39.686;2022-10-16T01:57:55;101542.47;;;6.50;65.74
63343;BME280;49465;57.664;39.686;2022-10-16T02:00:24;101535.47;;;6.52;65.58
63343;BME280;49465;57.664;39.686;2022-10-16T02:02:55;101541.47;;;6.56;65.56
63343;BME280;49465;57.664;39.686;2022-10-16T02:05:49;101538.09;;;6.82;66.05
63343;BME280;49465;57.664;39.686;2022-10-16T02:08:25;101540.19;;;6.70;65.71
63343;BME280;49465;57.664;39.686;2022-10-16T02:10:56;101543.06;;;6.61;65.47
63343;BME280;49465;57.664;39.686;2022-10-16T02:13:39;101536.50;;;6.78;65.84
63343;BME280;49465;57.664;39.686;2022-10-16T02:16:12;101541.28;;;6.62;65.75
63343;BME280;49465;57.664;39.686;2022-10-16T02:18:46;101534.25;;;6.65;65.76
63343;BME280;49465;57.664;39.686;2022-10-16T02:21:28;101536.16;;;6.90;66.12
63343;BME280;49465;57.664;39.686;2022-10-16T02:24:24;101529.81;;;6.99;65.71
63343;BME280;49465;57.664;39.686;2022-10-16T02:29:59;101538.31;;;6.74;65.37
63343;BME280;49465;57.664;39.686;2022-10-16T02:32:30;101539.94;;;6.78;66.01
63343;BME280;49465;57.664;39.686;2022-10-16T02:34:59;101547.19;;;6.68;65.69
63343;BME280;49465;57.664;39.686;2022-10-16T02:37:30;101539.38;;;6.68;65.38
63343;BME280;49465;57.664;39.686;2022-10-16T02:40:07;101541.00;;;6.72;65.53
63343;BME280;49465;57.664;39.686;2022-10-16T02:42:38;101550.25;;;6.83;65.91
63343;BME280;49465;57.664;39.686;2022-10-16T02:45:12;101551.16;;;6.82;65.49
63343;BME280;49465;57.664;39.686;2022-10-16T02:47:41;101545.13;;;6.80;65.71
63343;BME280;49465;57.664;39.686;2022-10-16T02:50:16;101547.69;;;6.81;65.96
63343;BME280;49465;57.664;39.686;2022-10-16T02:52:45;101552.06;;;6.81;65.89
63343;BME280;49465;57.664;39.686;2022-10-16T02:55:24;101549.44;;;6.81;65.77
63343;BME280;49465;57.664;39.686;2022-10-16T02:57:56;101555.34;;;6.87;65.80
63343;BME280;49465;57.664;39.686;2022-10-16T03:00:30;101546.25;;;6.71;65.29
63343;BME280;49465;57.664;39.686;2022-10-16T03:02:59;101546.25;;;6.71;65.45
63343;BME280;49465;57.664;39.686;2022-10-16T03:05:36;101547.56;;;6.86;65.85
63343;BME280;49465;57.664;39.686;2022-10-16T03:08:05;101551.25;;;6.79;65.94
63343;BME280;49465;57.664;39.686;2022-10-16T03:10:43;101545.00;;;6.84;65.69
63343;BME280;49465;57.664;39.686;2022-10-16T03:13:15;101558.19;;;6.78;65.53
63343;BME280;49465;57.664;39.686;2022-10-16T03:15:48;101548.94;;;6.68;65.46
63343;BME280;49465;57.664;39.686;2022-10-16T03:18:38;101545.47;;;6.67;65.04
63343;BME280;49465;57.664;39.686;2022-10-16T03:21:14;101554.63;;;6.82;65.54
63343;BME280;49465;57.664;39.686;2022-10-16T03:23:49;101547.28;;;6.65;65.25
63343;BME280;49465;57.664;39.686;2022-10-16T03:26:22;101555.72;;;6.73;65.59
63343;BME280;49465;57.664;39.686;2022-10-16T03:28:53;101552.53;;;6.64;65.21
63343;BME280;49465;57.664;39.686;2022-10-16T03:31:24;101560.16;;;6.70;65.16
63343;BME280;49465;57.664;39.686;2022-10-16T03:33:54;101567.97;;;6.70;65.63
63343;BME280;49465;57.664;39.686;2022-10-16T03:36:26;101561.13;;;6.67;65.64
63343;BME280;49465;57.664;39.686;2022-10-16T03:38:57;101565.53;;;6.65;65.74
63343;BME280;49465;57.664;39.686;2022-10-16T03:41:23;101559.66;;;6.57;65.60
63343;BME280;49465;57.664;39.686;2022-10-16T03:43:52;101568.19;;;6.62;65.69
63343;BME280;49465;57.664;39.686;2022-10-16T03:46:24;101564.06;;;6.55;65.67
63343;BME280;49465;57.664;39.686;2022-10-16T03:48:51;101570.16;;;6.54;65.18
63343;BME280;49465;57.664;39.686;2022-10-16T03:51:26;101577.75;;;6.63;65.71
63343;BME280;49465;57.664;39.686;2022-10-16T03:53:52;101574.56;;;6.52;65.65
63343;BME280;49465;57.664;39.686;2022-10-16T03:56:19;101575.41;;;6.52;65.45
63343;BME280;49465;57.664;39.686;2022-10-16T03:58:50;101579.56;;;6.60;65.62
63343;BME280;49465;57.664;39.686;2022-10-16T04:01:20;101585.63;;;6.60;65.70
63343;BME280;49465;57.664;39.686;2022-10-16T04:03:46;101578.09;;;6.51;65.50
63343;BME280;49465;57.664;39.686;2022-10-16T04:06:15;101583.28;;;6.51;65.37
63343;BME280;49465;57.664;39.686;2022-10-16T04:08:50;101581.53;;;6.51;65.66
63343;BME280;49465;57.664;39.686;2022-10-16T04:11:19;101588.31;;;6.59;65.67
63343;BME280;49465;57.664;39.686;2022-10-16T04:13:48;101579.88;;;6.49;65.53
63343;BME280;49465;57.664;39.686;2022-10-16T04:16:26;101576.34;;;6.50;65.36
63343;BME280;49465;57.664;39.686;2022-10-16T04:18:57;101581.53;;;6.51;65.34
63343;BME280;49465;57.664;39.686;2022-10-16T04:21:27;101583.00;;;6.62;65.74
63343;BME280;49465;57.664;39.686;2022-10-16T04:23:58;101575.19;;;6.60;65.50
63343;BME280;49465;57.664;39.686;2022-10-16T04:26:27;101584.75;;;6.61;65.28
63343;BME280;49465;57.664;39.686;2022-10-16T04:28:53;101581.44;;;6.54;65.19
63343;BME280;49465;57.664;39.686;2022-10-16T04:31:20;101581.41;;;6.56;65.39
63343;BME280;49465;57.664;39.686;2022-10-16T04:33:58;101579.00;;;6.80;65.56
63343;BME280;49465;57.664;39.686;2022-10-16T04:36:27;101581.97;;;6.67;65.59
63343;BME280;49465;57.664;39.686;2022-10-16T04:39:02;101576.72;;;6.69;65.68
63343;BME280;49465;57.664;39.686;2022-10-16T04:41:31;101580.38;;;6.62;65.23
63343;BME280;49465;57.664;39.686;2022-10-16T04:43:58;101576.81;;;6.64;65.42
63343;BME280;49465;57.664;39.686;2022-10-16T04:46:32;101591.34;;;6.75;65.50
63343;BME280;49465;57.664;39.686;2022-10-16T04:49:01;101579.28;;;6.70;65.10
63343;BME280;49465;57.664;39.686;2022-10-16T04:51:28;101581.81;;;6.72;65.08
63343;BME280;49465;57.664;39.686;2022-10-16T04:53:59;101591.13;;;6.82;65.67
63343;BME280;49465;57.664;39.686;2022-10-16T04:56:29;101591.00;;;6.87;65.64
63343;BME280;49465;57.664;39.686;2022-10-16T04:58:58;101591.16;;;6.81;65.02
63343;BME280;49465;57.664;39.686;2022-10-16T05:01:27;101586.50;;;6.92;65.11
63343;BME280;49465;57.664;39.686;2022-10-16T05:03:56;101587.53;;;6.86;65.28
63343;BME280;49465;57.664;39.686;2022-10-16T05:06:23;101595.25;;;6.89;65.08
63343;BME280;49465;57.664;39.686;2022-10-16T05:09:06;101592.72;;;7.18;65.60
63343;BME280;49465;57.664;39.686;2022-10-16T05:11:32;101591.59;;;6.97;65.30
63343;BME280;49465;57.664;39.686;2022-10-16T05:14:02;101589.78;;;6.99;65.26
63343;BME280;49465;57.664;39.686;2022-10-16T05:16:34;101599.88;;;7.09;65.57
63343;BME280;49465;57.664;39.686;2022-10-16T05:19:10;101590.63;;;7.29;65.31
63343;BME280;49465;57.664;39.686;2022-10-16T05:21:42;101588.34;;;7.18;65.74
63343;BME280;49465;57.664;39.686;2022-10-16T05:24:12;101594.59;;;7.12;65.38
63343;BME280;49465;57.664;39.686;2022-10-16T05:26:46;101597.78;;;7.22;65.31
63343;BME280;49465;57.664;39.686;2022-10-16T05:29:21;101593.22;;;7.29;65.47
63343;BME280;49465;57.664;39.686;2022-10-16T05:32:02;101605.06;;;7.41;65.34
63343;BME280;49465;57.664;39.686;2022-10-16T05:34:32;101593.19;;;7.30;64.98
63343;BME280;49465;57.664;39.686;2022-10-16T05:36:58;101596.56;;;7.34;64.89
63343;BME280;49465;57.664;39.686;2022-10-16T05:39:36;101595.56;;;7.38;64.92
63343;BME280;49465;57.664;39.686;2022-10-16T05:42:08;101610.81;;;7.52;64.98
63343;BME280;49465;57.664;39.686;2022-10-16T05:44:43;101606.78;;;7.70;65.05
63343;BME280;49465;57.664;39.686;2022-10-16T05:47:13;101613.91;;;7.65;64.51
63343;BME280;49465;57.664;39.686;2022-10-16T05:49:43;101607.97;;;7.60;64.56
63343;BME280;49465;57.664;39.686;2022-10-16T05:52:15;101610.50;;;7.63;64.21
63343;BME280;49465;57.664;39.686;2022-10-16T05:54:44;101615.53;;;7.69;63.65
63343;BME280;49465;57.664;39.686;2022-10-16T05:57:11;101611.91;;;7.73;63.73
63343;BME280;49465;57.664;39.686;2022-10-16T05:59:40;101613.47;;;7.79;63.77
63343;BME280;49465;57.664;39.686;2022-10-16T06:02:15;101605.84;;;7.99;64.01
63343;BME280;49465;57.664;39.686;2022-10-16T06:04:53;101614.09;;;8.14;64.13
63343;BME280;49465;57.664;39.686;2022-10-16T06:07:20;101611.97;;;7.98;63.05
63343;BME280;49465;57.664;39.686;2022-10-16T06:09:51;101607.41;;;8.05;63.16
63343;BME280;49465;57.664;39.686;2022-10-16T06:12:23;101611.28;;;8.20;63.03
63343;BME280;49465;57.664;39.686;2022-10-16T06:14:56;101610.34;;;8.21;62.15
63343;BME280;49465;57.664;39.686;2022-10-16T06:17:30;101618.53;;;8.37;62.12
63343;BME280;49465;57.664;39.686;2022-10-16T06:20:03;101613.75;;;8.51;62.05
63343;BME280;49465;57.664;39.686;2022-10-16T06:22:33;101617.81;;;8.58;61.44
63343;BME280;49465;57.664;39.686;2022-10-16T06:25:08;101621.09;;;8.65;61.17
63343;BME280;49465;57.664;39.686;2022-10-16T06:27:35;101628.91;;;8.66;61.01
63343;BME280;49465;57.664;39.686;2022-10-16T06:30:13;101631.69;;;8.85;61.27
63343;BME280;49465;57.664;39.686;2022-10-16T06:32:45;101634.72;;;8.98;61.48
63343;BME280;49465;57.664;39.686;2022-10-16T06:35:15;101625.69;;;9.07;60.61
63343;BME280;49465;57.664;39.686;2022-10-16T06:37:49;101637.31;;;9.23;59.80
63343;BME280;49465;57.664;39.686;2022-10-16T06:40:20;101636.00;;;9.35;59.98
63343;BME280;49465;57.664;39.686;2022-10-16T06:43:00;101631.06;;;9.49;59.36
63343;BME280;49465;57.664;39.686;2022-10-16T06:45:34;101634.13;;;9.61;59.61
63343;BME280;49465;57.664;39.686;2022-10-16T06:48:05;101641.50;;;9.73;59.74
63343;BME280;49465;57.664;39.686;2022-10-16T06:50:41;101638.38;;;9.85;59.81
63343;BME280;49465;57.664;39.686;2022-10-16T06:53:15;101639.06;;;9.90;58.70
63343;BME280;49465;57.664;39.686;2022-10-16T06:55:50;101641.72;;;10.11;58.45
63343;BME280;49465;57.664;39.686;2022-10-16T06:58:16;101634.53;;;10.16;58.60
63343;BME280;49465;57.664;39.686;2022-10-16T07:00:46;101635.84;;;10.26;57.76
63343;BME280;49465;57.664;39.686;2022-10-16T07:03:24;101644.25;;;10.57;58.82
63343;BME280;49465;57.664;39.686;2022-10-16T07:06:00;101638.66;;;10.64;57.73
63343;BME280;49465;57.664;39.686;2022-10-16T07:08:27;101633.53;;;10.61;58.28
63343;BME280;49465;57.664;39.686;2022-10-16T07:11:06;101641.75;;;10.93;57.58
63343;BME280;49465;57.664;39.686;2022-10-16T07:13:36;101644.03;;;11.01;57.86
63343;BME280;49465;57.664;39.686;2022-10-16T07:16:14;101638.91;;;11.18;57.25
63343;BME280;49465;57.664;39.686;2022-10-16T07:18:51;101637.72;;;11.25;57.12
63343;BME280;49465;57.664;39.686;2022-10-16T07:21:24;101644.59;;;11.28;56.40
63343;BME280;49465;57.664;39.686;2022-10-16T07:23:59;101636.63;;;11.48;56.47
63343;BME280;49465;57.664;39.686;2022-10-16T07:26:31;101644.78;;;11.61;56.73
63343;BME280;49465;57.664;39.686;2022-10-16T07:29:08;101645.75;;;11.78;54.85
63343;BME280;49465;57.664;39.686;2022-10-16T07:31:49;101639.28;;;11.85;55.60
63343;BME280;49465;57.664;39.686;2022-10-16T07:34:23;101648.00;;;12.04;55.38
63343;BME280;49465;57.664;39.686;2022-10-16T07:36:55;101645.00;;;12.12;54.75
63343;BME280;49465;57.664;39.686;2022-10-16T07:39:35;101639.19;;;12.23;55.14
63343;BME280;49465;57.664;39.686;2022-10-16T07:42:07;101635.41;;;12.29;54.50
63343;BME280;49465;57.664;39.686;2022-10-16T07:44:36;101640.09;;;12.41;54.20
63343;BME280;49465;57.664;39.686;2022-10-16T07:47:05;101640.38;;;12.52;54.57
63343;BME280;49465;57.664;39.686;2022-10-16T07:49:34;101633.72;;;12.62;54.72
63343;BME280;49465;57.664;39.686;2022-10-16T07:52:03;101637.09;;;12.82;53.85
63343;BME280;49465;57.664;39.686;2022-10-16T07:54:30;101634.63;;;12.79;53.58
63343;BME280;49465;57.664;39.686;2022-10-16T07:56:59;101634.16;;;12.88;53.31
63343;BME280;49465;57.664;39.686;2022-10-16T07:59:30;101633.91;;;13.09;53.23
63343;BME280;49465;57.664;39.686;2022-10-16T08:02:02;101631.13;;;13.12;52.68
63343;BME280;49465;57.664;39.686;2022-10-16T08:04:29;101630.47;;;13.24;52.93
63343;BME280;49465;57.664;39.686;2022-10-16T08:06:55;101632.78;;;13.30;52.03
63343;BME280;49465;57.664;39.686;2022-10-16T08:09:21;101629.75;;;13.38;52.10
63343;BME280;49465;57.664;39.686;2022-10-16T08:11:48;101633.66;;;13.47;51.67
63343;BME280;49465;57.664;39.686;2022-10-16T08:14:17;101625.41;;;13.53;51.41
63343;BME280;49465;57.664;39.686;2022-10-16T08:16:44;101625.06;;;13.59;51.31
63343;BME280;49465;57.664;39.686;2022-10-16T08:19:13;101640.38;;;13.68;51.12
63343;BME280;49465;57.664;39.686;2022-10-16T08:21:48;101631.94;;;13.77;52.18
63343;BME280;49465;57.664;39.686;2022-10-16T08:24:17;101630.59;;;13.70;51.12
63343;BME280;49465;57.664;39.686;2022-10-16T08:26:46;101627.78;;;13.73;50.64
63343;BME280;49465;57.664;39.686;2022-10-16T08:29:20;101632.03;;;13.92;51.96
63343;BME280;49465;57.664;39.686;2022-10-16T08:31:48;101628.84;;;14.31;53.47
63343;BME280;49465;57.664;39.686;2022-10-16T08:34:15;101630.56;;;13.86;50.88
63343;BME280;49465;57.664;39.686;2022-10-16T08:36:41;101627.06;;;13.85;51.18
63343;BME280;49465;57.664;39.686;2022-10-16T08:39:08;101626.31;;;13.83;50.93
63343;BME280;49465;57.664;39.686;2022-10-16T08:42:04;101627.56;;;14.08;50.57
63343;BME280;49465;57.664;39.686;2022-10-16T08:50:10;101623.88;;;14.11;50.10
63343;BME280;49465;57.664;39.686;2022-10-16T08:52:41;101615.56;;;14.02;49.34
63343;BME280;49465;57.664;39.686;2022-10-16T08:55:28;101627.94;;;14.16;50.01
63343;BME280;49465;57.664;39.686;2022-10-16T08:57:56;101617.59;;;13.97;50.68
63343;BME280;49465;57.664;39.686;2022-10-16T09:00:23;101615.09;;;13.96;50.22
63343;BME280;49465;57.664;39.686;2022-10-16T09:03:10;101615.34;;;14.21;50.87
63343;BME280;49465;57.664;39.686;2022-10-16T09:17:52;101608.31;;;14.36;51.08
63343;BME280;49465;57.664;39.686;2022-10-16T09:23:22;101609.03;;;14.24;49.73
63343;BME280;49465;57.664;39.686;2022-10-16T09:25:54;101608.81;;;14.13;49.75
63343;BME280;49465;57.664;39.686;2022-10-16T09:28:21;101604.56;;;14.10;49.96
63343;BME280;49465;57.664;39.686;2022-10-16T09:30:48;101606.09;;;14.14;49.71
63343;BME280;49465;57.664;39.686;2022-10-16T09:33:20;101599.97;;;14.14;49.44
63343;BME280;49465;57.664;39.686;2022-10-16T09:35:52;101604.22;;;14.16;49.36
63343;BME280;49465;57.664;39.686;2022-10-16T09:38:30;101602.84;;;14.25;47.94
63343;BME280;49465;57.664;39.686;2022-10-16T09:40:58;101594.50;;;14.17;48.67
63343;BME280;49465;57.664;39.686;2022-10-16T09:43:39;101600.28;;;14.23;48.24
63343;BME280;49465;57.664;39.686;2022-10-16T09:46:26;101604.84;;;14.50;47.92
63343;BME280;49465;57.664;39.686;2022-10-16T09:48:59;101595.41;;;14.32;48.51
63343;BME280;49465;57.664;39.686;2022-10-16T09:51:28;101598.50;;;14.38;48.76
63343;BME280;49465;57.664;39.686;2022-10-16T09:54:01;101596.31;;;14.31;48.57
63343;BME280;49465;57.664;39.686;2022-10-16T09:56:29;101591.91;;;14.31;48.79
63343;BME280;49465;57.664;39.686;2022-10-16T09:59:02;101591.56;;;14.37;48.51
63343;BME280;49465;57.664;39.686;2022-10-16T10:01:35;101596.63;;;14.40;48.72
63343;BME280;49465;57.664;39.686;2022-10-16T10:04:05;101590.25;;;14.44;48.36
63343;BME280;49465;57.664;39.686;2022-10-16T10:06:43;101586.34;;;14.36;47.91
63343;BME280;49465;57.664;39.686;2022-10-16T10:09:29;101589.75;;;14.52;48.80
63343;BME280;49465;57.664;39.686;2022-10-16T10:11:59;101582.59;;;14.40;48.61
63343;BME280;49465;57.664;39.686;2022-10-16T10:14:44;101580.41;;;14.62;46.26
63343;BME280;49465;57.664;39.686;2022-10-16T10:17:23;101580.78;;;14.56;46.68
63343;BME280;49465;57.664;39.686;2022-10-16T10:19:58;101585.53;;;14.50;48.64
63343;BME280;49465;57.664;39.686;2022-10-16T10:22:38;101583.72;;;14.50;48.37
63343;BME280;49465;57.664;39.686;2022-10-16T10:28:01;101578.88;;;14.73;48.91
63343;BME280;49465;57.664;39.686;2022-10-16T10:30:51;101572.47;;;14.77;48.65
63343;BME280;49465;57.664;39.686;2022-10-16T10:36:24;101577.94;;;14.74;47.72
63343;BME280;49465;57.664;39.686;2022-10-16T10:39:24;101576.81;;;14.78;48.25
63343;BME280;49465;57.664;39.686;2022-10-16T10:42:41;101577.47;;;14.96;48.40
63343;BME280;49465;57.664;39.686;2022-10-16T10:45:18;101577.38;;;14.83;47.47
63343;BME280;49465;57.664;39.686;2022-10-16T10:48:14;101576.31;;;14.86;47.66
63343;BME280;49465;57.664;39.686;2022-10-16T10:50:52;101580.75;;;14.85;47.81
63343;BME280;49465;57.664;39.686;2022-10-16T10:56:41;101575.84;;;15.08;46.12
63343;BME280;49465;57.664;39.686;2022-10-16T11:02:00;101564.75;;;14.88;46.56
63343;BME280;49465;57.664;39.686;2022-10-16T11:07:37;101568.81;;;15.35;45.20
63343;BME280;49465;57.664;39.686;2022-10-16T11:10:20;101556.09;;;15.28;45.69
63343;BME280;49465;57.664;39.686;2022-10-16T11:15:50;101560.78;;;15.37;45.45
63343;BME280;49465;57.664;39.686;2022-10-16T11:18:46;101558.03;;;15.38;44.82
63343;BME280;49465;57.664;39.686;2022-10-16T11:21:18;101557.25;;;15.51;45.03
63343;BME280;49465;57.664;39.686;2022-10-16T11:23:51;101559.41;;;15.58;44.94
63343;BME280;49465;57.664;39.686;2022-10-16T11:26:23;101560.38;;;15.70;45.78
63343;BME280;49465;57.664;39.686;2022-10-16T11:29:07;101546.69;;;15.78;44.76
63343;BME280;49465;57.664;39.686;2022-10-16T11:31:52;101549.69;;;15.72;44.87
63343;BME280;49465;57.664;39.686;2022-10-16T11:40:37;101545.13;;;16.01;45.19
63343;BME280;49465;57.664;39.686;2022-10-16T11:43:17;101537.66;;;16.08;43.94
63343;BME280;49465;57.664;39.686;2022-10-16T11:45:53;101534.25;;;16.18;45.35
63343;BME280;49465;57.664;39.686;2022-10-16T11:48:23;101525.06;;;16.11;44.28
63343;BME280;49465;57.664;39.686;2022-10-16T11:53:48;101524.44;;;16.33;43.11
63343;BME280;49465;57.664;39.686;2022-10-16T11:56:19;101515.66;;;16.33;43.56
63343;BME280;49465;57.664;39.686;2022-10-16T11:58:56;101515.94;;;16.54;41.39
63343;BME280;49465;57.664;39.686;2022-10-16T12:01:46;101507.97;;;16.67;44.76
63343;BME280;49465;57.664;39.686;2022-10-16T12:04:26;101501.84;;;16.53;43.45
63343;BME280;49465;57.664;39.686;2022-10-16T12:07:09;101503.81;;;16.75;42.86
63343;BME280;49465;57.664;39.686;2022-10-16T12:09:39;101509.91;;;16.65;43.75
63343;BME280;49465;57.664;39.686;2022-10-16T12:12:25;101509.75;;;16.92;44.11
63343;BME280;49465;57.664;39.686;2022-10-16T12:15:21;101510.16;;;16.98;43.92
63343;BME280;49465;57.664;39.686;2022-10-16T12:17:52;101512.75;;;16.74;42.43
63343;BME280;49465;57.664;39.686;2022-10-16T12:20:24;101516.75;;;16.80;43.53
63343;BME280;49465;57.664;39.686;2022-10-16T12:23:01;101511.25;;;16.83;43.43
63343;BME280;49465;57.664;39.686;2022-10-16T12:25:39;101519.72;;;16.88;42.81
63343;BME280;49465;57.664;39.686;2022-10-16T12:30:43;101509.34;;;16.85;42.30
63343;BME280;49465;57.664;39.686;2022-10-16T12:33:25;101507.22;;;16.90;42.91
63343;BME280;49465;57.664;39.686;2022-10-16T12:35:59;101500.00;;;16.92;42.43
63343;BME280;49465;57.664;39.686;2022-10-16T12:41:03;101499.56;;;16.98;43.51
63343;BME280;49465;57.664;39.686;2022-10-16T12:43:41;101503.19;;;16.97;42.02
63343;BME280;49465;57.664;39.686;2022-10-16T12:48:44;101502.03;;;16.89;42.00
63343;BME280;49465;57.664;39.686;2022-10-16T12:51:49;101500.84;;;17.17;41.07
63343;BME280;49465;57.664;39.686;2022-10-16T12:54:34;101501.03;;;17.03;42.54
63343;BME280;49465;57.664;39.686;2022-10-16T13:08:20;101503.19;;;16.97;42.59
63343;BME280;49465;57.664;39.686;2022-10-16T13:11:05;101507.78;;;17.07;41.55
63343;BME280;49465;57.664;39.686;2022-10-16T13:20:02;101516.03;;;17.15;43.33
63343;BME280;49465;57.664;39.686;2022-10-16T13:28:52;101516.13;;;16.76;42.74
63343;BME280;49465;57.664;39.686;2022-10-16T13:31:23;101514.00;;;16.82;42.75
63343;BME280;49465;57.664;39.686;2022-10-16T13:33:55;101509.78;;;16.66;41.69
63343;BME280;49465;57.664;39.686;2022-10-16T13:36:42;101517.69;;;16.79;43.00
63343;BME280;49465;57.664;39.686;2022-10-16T13:41:47;101520.81;;;16.47;42.43
63343;BME280;49465;57.664;39.686;2022-10-16T13:44:24;101512.34;;;16.42;42.27
63343;BME280;49465;57.664;39.686;2022-10-16T13:47:01;101515.63;;;16.58;42.96
63343;BME280;49465;57.664;39.686;2022-10-16T13:49:30;101516.06;;;16.39;42.63
63343;BME280;49465;57.664;39.686;2022-10-16T13:52:02;101523.59;;;16.33;42.01
63343;BME280;49465;57.664;39.686;2022-10-16T13:54:36;101521.88;;;16.32;42.98
63343;BME280;49465;57.664;39.686;2022-10-16T13:57:06;101519.13;;;16.20;42.90
63343;BME280;49465;57.664;39.686;2022-10-16T13:59:40;101515.97;;;16.15;42.55
63343;BME280;49465;57.664;39.686;2022-10-16T14:02:22;101513.81;;;16.20;43.21
63343;BME280;49465;57.664;39.686;2022-10-16T14:04:51;101510.31;;;15.94;42.93
63343;BME280;49465;57.664;39.686;2022-10-16T14:07:29;101497.53;;;15.88;42.43
63343;BME280;49465;57.664;39.686;2022-10-16T14:10:18;101516.13;;;15.87;42.78
63343;BME280;49465;57.664;39.686;2022-10-16T14:12:58;101511.59;;;15.89;43.36
63343;BME280;49465;57.664;39.686;2022-10-16T14:15:30;101516.28;;;15.71;43.10
63343;BME280;49465;57.664;39.686;2022-10-16T14:18:13;101509.34;;;15.55;42.61
63343;BME280;49465;57.664;39.686;2022-10-16T14:20:42;101511.31;;;15.39;43.09
63343;BME280;49465;57.664;39.686;2022-10-16T14:23:38;101519.97;;;15.68;44.25
63343;BME280;49465;57.664;39.686;2022-10-16T14:28:47;101518.44;;;15.24;43.35
63343;BME280;49465;57.664;39.686;2022-10-16T14:34:28;101515.25;;;15.19;43.61
63343;BME280;49465;57.664;39.686;2022-10-16T14:36:57;101523.50;;;14.86;43.62
63343;BME280;49465;57.664;39.686;2022-10-16T14:39:34;101513.63;;;14.89;43.67
63343;BME280;49465;57.664;39.686;2022-10-16T14:42:04;101516.28;;;14.75;43.93
63343;BME280;49465;57.664;39.686;2022-10-16T14:44:35;101519.69;;;14.62;44.29
63343;BME280;49465;57.664;39.686;2022-10-16T14:47:16;101514.88;;;14.69;44.33
63343;BME280;49465;57.664;39.686;2022-10-16T14:49:51;101512.47;;;14.50;44.30
63343;BME280;49465;57.664;39.686;2022-10-16T14:52:21;101511.91;;;14.31;44.13
63343;BME280;49465;57.664;39.686;2022-10-16T14:54:54;101513.91;;;14.41;44.72
63343;BME280;49465;57.664;39.686;2022-10-16T14:57:26;101515.22;;;14.20;44.26
63343;BME280;49465;57.664;39.686;2022-10-16T14:59:53;101521.22;;;14.08;44.63
63343;BME280;49465;57.664;39.686;2022-10-16T15:02:34;101525.22;;;14.29;44.94
63343;BME280;49465;57.664;39.686;2022-10-16T15:05:18;101521.16;;;14.23;44.85
63343;BME280;49465;57.664;39.686;2022-10-16T15:07:45;101525.22;;;13.84;44.77
63343;BME280;49465;57.664;39.686;2022-10-16T15:10:13;101520.31;;;13.78;44.80
63343;BME280;49465;57.664;39.686;2022-10-16T15:12:40;101523.47;;;13.69;44.69